Terminal Aerodrome Forecast
Issued by NWS

Home | Current Version | Previous Version | Text Only | Print | Product List | Glossary On
Versions: 1 2 3 4 5 6 7 8 9 10 11 12 13
000
FTUS45 KABQ 300500
TAFLVS
TAF
KLVS 300540Z 3006/3106 15009KT P6SM VCSH SCT025 OVC035
      TEMPO 3010/3014 3SM -SN BR SCT015 BKN025
     FM301400 17010KT 1SM BR SCT003 OVC008=

USA.gov is the U.S. government's official web portal to all federal, state and local government web resources and services.